This is the latest recevied weather packets stored in our database for station/object WP3OF-5. If no packets are shown the sender has not sent any weather packets the latest 1 day(s).
| Time | Temp. | Humidity | Pressure | Rain* | Wind** | Luminosity | Snow |
|---|---|---|---|---|---|---|---|
| 1778004737 | 32.78° C | 65% | 1016.5 hPa | 0 mm | 0 m/s | - | - |
| 1778004433 | 32.22° C | 66% | 1016.6 hPa | 0 mm | 0 m/s | - | - |
| 1778004130 | 30.56° C | 71% | 1016.6 hPa | 0 mm | 0 m/s | - | - |
| 1778003826 | 30° C | 73% | 1016.8 hPa | 0 mm | 0 m/s | - | - |
| 1778003523 | 30° C | 73% | 1016.7 hPa | 0 mm | 0.45 m/s, 21° | - | - |
| 1778003219 | 30.56° C | 71% | 1016.8 hPa | 0 mm | 0 m/s | - | - |
| 1778002915 | 31.11° C | 70% | 1017.1 hPa | 0 mm | 0.45 m/s, 93° | - | - |
| 1778002612 | 31.11° C | 68% | 1016.8 hPa | 0 mm | 0.45 m/s, 102° | - | - |
| 1778002309 | 31.11° C | 68% | 1016.9 hPa | 0 mm | 0 m/s | - | - |
| 1778002007 | 30.56° C | 70% | 1017.2 hPa | 0 mm | 0.45 m/s, 102° | - | - |
| 1778001703 | 30.56° C | 70% | 1017.2 hPa | 0 mm | 0 m/s | - | - |
| 1778001403 | 30.56° C | 69% | 1017.1 hPa | 0 mm | 0.89 m/s, 43° | - | - |
| 1778001101 | 31.11° C | 69% | 1017.2 hPa | 0 mm | 0.45 m/s, 2° | - | - |
| 1778000798 | 30.56° C | 70% | 1017.4 hPa | 0 mm | 0.45 m/s, 51° | - | - |
| 1778000494 | 30.56° C | 69% | 1017.8 hPa | 0 mm | 0.45 m/s, 99° | - | - |
| 1778000189 | 31.11° C | 69% | 1017.5 hPa | 0 mm | 0.45 m/s, 49° | - | - |
| 1777999886 | 31.67° C | 67% | 1017.5 hPa | 0 mm | 0 m/s | - | - |
| 1777999581 | 31.11° C | 69% | 1017.4 hPa | 0 mm | 0.45 m/s, 321° | - | - |
| 1777999279 | 30.56° C | 70% | 1017.7 hPa | 0 mm | 0.89 m/s, 4° | - | - |
| 1777998977 | 31.11° C | 69% | 1017.7 hPa | 0 mm | 0 m/s | - | - |
| 1777998674 | 31.67° C | 65% | 1017.6 hPa | 0 mm | 0 m/s | - | - |
| 1777998372 | 31.67° C | 59% | 1017.7 hPa | 0 mm | 0.45 m/s, 146° | - | - |
| 1777998069 | 31.11° C | 59% | 1017.8 hPa | 0 mm | 0 m/s | - | - |
| 1777997766 | 31.67° C | 55% | 1017.7 hPa | 0 mm | 0 m/s | - | - |
| 1777997463 | 32.78° C | 51% | 1017.9 hPa | 0 mm | 1.79 m/s, 146° | - | - |
* Rain latest hour (hover to see other rain measurements)
** Current wind speed in m/s (hover to see current wind gust speed)